sensor_id;sensor_type;location;lat;lon;timestamp;temperature;humidity
64855;DHT22;51321;50.428;8.378;2022-12-15T00:01:30;-4.50;99.90
64855;DHT22;51321;50.428;8.378;2022-12-15T00:04:10;-4.50;99.90
64855;DHT22;51321;50.428;8.378;2022-12-15T00:06:51;-4.50;99.90
64855;DHT22;51321;50.428;8.378;2022-12-15T00:09:33;-4.40;99.90
64855;DHT22;51321;50.428;8.378;2022-12-15T00:12:12;-4.40;99.90
64855;DHT22;51321;50.428;8.378;2022-12-15T00:14:54;-4.30;99.90
64855;DHT22;51321;50.428;8.378;2022-12-15T00:17:34;-4.30;99.90
64855;DHT22;51321;50.428;8.378;2022-12-15T00:20:17;-4.30;99.90
64855;DHT22;51321;50.428;8.378;2022-12-15T00:23:07;-4.30;99.90
64855;DHT22;51321;50.428;8.378;2022-12-15T00:25:48;-4.30;99.90
64855;DHT22;51321;50.428;8.378;2022-12-15T00:28:29;-4.20;99.90
64855;DHT22;51321;50.428;8.378;2022-12-15T00:31:09;-4.20;99.90
64855;DHT22;51321;50.428;8.378;2022-12-15T00:33:48;-4.10;99.90
64855;DHT22;51321;50.428;8.378;2022-12-15T00:36:30;-4.10;99.90
64855;DHT22;51321;50.428;8.378;2022-12-15T00:39:12;-3.90;99.90
64855;DHT22;51321;50.428;8.378;2022-12-15T00:41:34;-3.90;99.90
64855;DHT22;51321;50.428;8.378;2022-12-15T00:43:57;-3.90;99.90
64855;DHT22;51321;50.428;8.378;2022-12-15T00:46:19;-3.90;99.90
64855;DHT22;51321;50.428;8.378;2022-12-15T00:48:59;-3.90;99.90
64855;DHT22;51321;50.428;8.378;2022-12-15T00:51:44;-3.90;99.90
64855;DHT22;51321;50.428;8.378;2022-12-15T00:54:28;-3.90;99.90
64855;DHT22;51321;50.428;8.378;2022-12-15T00:57:07;-3.90;99.90
64855;DHT22;51321;50.428;8.378;2022-12-15T00:59:50;-3.90;99.90
64855;DHT22;51321;50.428;8.378;2022-12-15T01:02:30;-3.90;99.90
64855;DHT22;51321;50.428;8.378;2022-12-15T01:05:09;-3.90;99.90
64855;DHT22;51321;50.428;8.378;2022-12-15T01:07:51;-3.80;99.90
64855;DHT22;51321;50.428;8.378;2022-12-15T01:10:33;-3.80;99.90
64855;DHT22;51321;50.428;8.378;2022-12-15T01:13:14;-3.70;99.90
64855;DHT22;51321;50.428;8.378;2022-12-15T01:15:53;-3.60;99.90
64855;DHT22;51321;50.428;8.378;2022-12-15T01:18:38;-3.60;99.90
64855;DHT22;51321;50.428;8.378;2022-12-15T01:21:18;-3.60;99.90
64855;DHT22;51321;50.428;8.378;2022-12-15T01:23:44;-3.60;99.90
64855;DHT22;51321;50.428;8.378;2022-12-15T01:26:11;-3.60;99.90
64855;DHT22;51321;50.428;8.378;2022-12-15T01:28:34;-3.60;99.90
64855;DHT22;51321;50.428;8.378;2022-12-15T01:31:00;-3.60;99.90
64855;DHT22;51321;50.428;8.378;2022-12-15T01:33:23;-3.60;99.90
64855;DHT22;51321;50.428;8.378;2022-12-15T01:35:57;-3.50;99.90
64855;DHT22;51321;50.428;8.378;2022-12-15T01:38:22;-3.40;99.90
64855;DHT22;51321;50.428;8.378;2022-12-15T01:40:50;-3.50;99.90
64855;DHT22;51321;50.428;8.378;2022-12-15T01:43:15;-3.50;99.90
64855;DHT22;51321;50.428;8.378;2022-12-15T01:48:33;-3.50;99.90
64855;DHT22;51321;50.428;8.378;2022-12-15T01:51:10;-3.40;99.90
64855;DHT22;51321;50.428;8.378;2022-12-15T01:53:37;-3.40;99.90
64855;DHT22;51321;50.428;8.378;2022-12-15T01:56:05;-3.40;99.90
64855;DHT22;51321;50.428;8.378;2022-12-15T01:58:32;-3.30;99.90
64855;DHT22;51321;50.428;8.378;2022-12-15T02:00:55;-3.30;99.90
64855;DHT22;51321;50.428;8.378;2022-12-15T02:03:22;-3.30;99.90
64855;DHT22;51321;50.428;8.378;2022-12-15T02:05:47;-3.40;99.90
64855;DHT22;51321;50.428;8.378;2022-12-15T02:08:11;-3.30;99.90
64855;DHT22;51321;50.428;8.378;2022-12-15T02:10:41;-3.20;99.90
64855;DHT22;51321;50.428;8.378;2022-12-15T02:13:14;-3.10;99.90
64855;DHT22;51321;50.428;8.378;2022-12-15T02:15:44;-3.10;99.90
64855;DHT22;51321;50.428;8.378;2022-12-15T02:18:12;-3.20;99.90
64855;DHT22;51321;50.428;8.378;2022-12-15T02:20:46;-3.20;99.90
64855;DHT22;51321;50.428;8.378;2022-12-15T02:29:17;-3.00;99.90
64855;DHT22;51321;50.428;8.378;2022-12-15T02:31:51;-3.10;99.90
64855;DHT22;51321;50.428;8.378;2022-12-15T02:34:21;-3.10;99.90
64855;DHT22;51321;50.428;8.378;2022-12-15T02:36:48;-3.10;99.90
64855;DHT22;51321;50.428;8.378;2022-12-15T02:39:12;-3.00;99.90
64855;DHT22;51321;50.428;8.378;2022-12-15T02:41:37;-2.90;99.90
64855;DHT22;51321;50.428;8.378;2022-12-15T02:44:07;-2.80;99.90
64855;DHT22;51321;50.428;8.378;2022-12-15T02:46:41;-2.80;99.90
64855;DHT22;51321;50.428;8.378;2022-12-15T02:49:13;-2.80;99.90
64855;DHT22;51321;50.428;8.378;2022-12-15T02:51:46;-2.70;99.90
64855;DHT22;51321;50.428;8.378;2022-12-15T02:57:12;-2.70;99.90
64855;DHT22;51321;50.428;8.378;2022-12-15T02:59:41;-2.80;99.90
64855;DHT22;51321;50.428;8.378;2022-12-15T03:02:09;-2.70;99.90
64855;DHT22;51321;50.428;8.378;2022-12-15T03:04:35;-2.60;99.90
64855;DHT22;51321;50.428;8.378;2022-12-15T03:06:59;-2.50;99.90
64855;DHT22;51321;50.428;8.378;2022-12-15T03:09:23;-2.50;99.90
64855;DHT22;51321;50.428;8.378;2022-12-15T03:11:46;-2.40;99.90
64855;DHT22;51321;50.428;8.378;2022-12-15T03:14:13;-2.40;99.90
64855;DHT22;51321;50.428;8.378;2022-12-15T03:16:37;-2.40;99.90
64855;DHT22;51321;50.428;8.378;2022-12-15T03:19:00;-2.50;99.90
64855;DHT22;51321;50.428;8.378;2022-12-15T03:21:23;-2.50;99.90
64855;DHT22;51321;50.428;8.378;2022-12-15T03:23:46;-2.50;99.90
64855;DHT22;51321;50.428;8.378;2022-12-15T03:26:09;-2.40;99.90
64855;DHT22;51321;50.428;8.378;2022-12-15T03:28:32;-2.40;99.90
64855;DHT22;51321;50.428;8.378;2022-12-15T03:30:55;-2.40;99.90
64855;DHT22;51321;50.428;8.378;2022-12-15T03:33:19;-2.30;99.90
64855;DHT22;51321;50.428;8.378;2022-12-15T03:35:41;-2.30;99.90
64855;DHT22;51321;50.428;8.378;2022-12-15T03:38:05;-2.30;99.90
64855;DHT22;51321;50.428;8.378;2022-12-15T03:40:28;-2.30;99.90
64855;DHT22;51321;50.428;8.378;2022-12-15T03:42:54;-2.30;99.90
64855;DHT22;51321;50.428;8.378;2022-12-15T03:45:19;-2.20;99.90
64855;DHT22;51321;50.428;8.378;2022-12-15T03:47:42;-2.20;99.90
64855;DHT22;51321;50.428;8.378;2022-12-15T03:50:06;-2.20;99.90
64855;DHT22;51321;50.428;8.378;2022-12-15T03:52:31;-2.20;99.90
64855;DHT22;51321;50.428;8.378;2022-12-15T03:54:57;-2.20;99.90
64855;DHT22;51321;50.428;8.378;2022-12-15T03:57:20;-2.20;99.90
64855;DHT22;51321;50.428;8.378;2022-12-15T03:59:47;-2.20;99.90
64855;DHT22;51321;50.428;8.378;2022-12-15T04:02:12;-2.20;99.90
64855;DHT22;51321;50.428;8.378;2022-12-15T04:04:39;-2.20;99.90
64855;DHT22;51321;50.428;8.378;2022-12-15T04:07:06;-2.00;99.90
64855;DHT22;51321;50.428;8.378;2022-12-15T04:09:29;-2.10;99.90
64855;DHT22;51321;50.428;8.378;2022-12-15T04:11:54;-2.00;99.90
64855;DHT22;51321;50.428;8.378;2022-12-15T04:14:16;-2.00;99.90
64855;DHT22;51321;50.428;8.378;2022-12-15T04:16:38;-2.10;99.90
64855;DHT22;51321;50.428;8.378;2022-12-15T04:19:02;-2.20;99.90
64855;DHT22;51321;50.428;8.378;2022-12-15T04:21:41;-2.10;99.90
64855;DHT22;51321;50.428;8.378;2022-12-15T04:24:04;-2.10;99.90
64855;DHT22;51321;50.428;8.378;2022-12-15T04:26:45;-2.20;99.90
64855;DHT22;51321;50.428;8.378;2022-12-15T04:29:27;-2.20;99.90
64855;DHT22;51321;50.428;8.378;2022-12-15T04:32:11;-2.20;99.90
64855;DHT22;51321;50.428;8.378;2022-12-15T04:34:51;-2.10;99.90
64855;DHT22;51321;50.428;8.378;2022-12-15T04:37:30;-2.00;99.90
64855;DHT22;51321;50.428;8.378;2022-12-15T04:40:11;-2.00;99.90
64855;DHT22;51321;50.428;8.378;2022-12-15T04:42:51;-2.10;99.90
64855;DHT22;51321;50.428;8.378;2022-12-15T04:45:32;-2.20;99.90
64855;DHT22;51321;50.428;8.378;2022-12-15T04:48:12;-2.20;99.90
64855;DHT22;51321;50.428;8.378;2022-12-15T04:50:51;-2.30;99.90
64855;DHT22;51321;50.428;8.378;2022-12-15T04:53:32;-2.30;99.90
64855;DHT22;51321;50.428;8.378;2022-12-15T04:56:14;-2.20;99.90
64855;DHT22;51321;50.428;8.378;2022-12-15T04:58:56;-2.30;99.90
64855;DHT22;51321;50.428;8.378;2022-12-15T05:01:38;-2.30;99.90
64855;DHT22;51321;50.428;8.378;2022-12-15T05:04:18;-2.40;99.90
64855;DHT22;51321;50.428;8.378;2022-12-15T05:07:01;-2.20;99.90
64855;DHT22;51321;50.428;8.378;2022-12-15T05:09:43;-2.10;99.90
64855;DHT22;51321;50.428;8.378;2022-12-15T05:12:24;-2.00;99.90
64855;DHT22;51321;50.428;8.378;2022-12-15T05:15:07;-2.00;99.90
64855;DHT22;51321;50.428;8.378;2022-12-15T05:17:51;-2.10;99.90
64855;DHT22;51321;50.428;8.378;2022-12-15T05:20:33;-2.30;99.90
64855;DHT22;51321;50.428;8.378;2022-12-15T05:23:13;-2.40;99.90
64855;DHT22;51321;50.428;8.378;2022-12-15T05:25:53;-2.40;99.90
64855;DHT22;51321;50.428;8.378;2022-12-15T05:28:33;-2.40;99.90
64855;DHT22;51321;50.428;8.378;2022-12-15T05:31:12;-2.30;99.90
64855;DHT22;51321;50.428;8.378;2022-12-15T05:33:59;-2.30;99.90
64855;DHT22;51321;50.428;8.378;2022-12-15T05:36:24;-2.20;99.90
64855;DHT22;51321;50.428;8.378;2022-12-15T05:38:49;-2.20;99.90
64855;DHT22;51321;50.428;8.378;2022-12-15T05:41:11;-2.30;99.90
64855;DHT22;51321;50.428;8.378;2022-12-15T05:43:33;-2.30;99.90
64855;DHT22;51321;50.428;8.378;2022-12-15T05:46:00;-2.30;99.90
64855;DHT22;51321;50.428;8.378;2022-12-15T05:48:23;-2.00;99.90
64855;DHT22;51321;50.428;8.378;2022-12-15T05:50:50;-1.90;99.90
64855;DHT22;51321;50.428;8.378;2022-12-15T05:53:13;-2.10;99.90
64855;DHT22;51321;50.428;8.378;2022-12-15T05:55:35;-2.00;99.90
64855;DHT22;51321;50.428;8.378;2022-12-15T05:57:58;-2.10;99.90
64855;DHT22;51321;50.428;8.378;2022-12-15T06:00:21;-2.10;99.90
64855;DHT22;51321;50.428;8.378;2022-12-15T06:02:46;-2.20;99.90
64855;DHT22;51321;50.428;8.378;2022-12-15T06:05:12;-2.20;99.90
64855;DHT22;51321;50.428;8.378;2022-12-15T06:07:36;-2.30;99.90
64855;DHT22;51321;50.428;8.378;2022-12-15T06:09:58;-2.20;99.90
64855;DHT22;51321;50.428;8.378;2022-12-15T06:12:23;-2.30;99.90
64855;DHT22;51321;50.428;8.378;2022-12-15T06:14:49;-2.30;99.90
64855;DHT22;51321;50.428;8.378;2022-12-15T06:17:13;-2.30;99.90
64855;DHT22;51321;50.428;8.378;2022-12-15T06:19:36;-2.30;99.90
64855;DHT22;51321;50.428;8.378;2022-12-15T06:21:59;-2.30;99.90
64855;DHT22;51321;50.428;8.378;2022-12-15T06:24:25;-2.40;99.90
64855;DHT22;51321;50.428;8.378;2022-12-15T06:26:47;-2.40;99.90
64855;DHT22;51321;50.428;8.378;2022-12-15T06:29:11;-2.40;99.90
64855;DHT22;51321;50.428;8.378;2022-12-15T06:31:35;-2.40;99.90
64855;DHT22;51321;50.428;8.378;2022-12-15T06:33:59;-2.30;99.90
64855;DHT22;51321;50.428;8.378;2022-12-15T06:36:26;-2.20;99.90
64855;DHT22;51321;50.428;8.378;2022-12-15T06:38:49;-2.10;99.90
64855;DHT22;51321;50.428;8.378;2022-12-15T06:41:16;-2.30;99.90
64855;DHT22;51321;50.428;8.378;2022-12-15T06:43:39;-2.30;99.90
64855;DHT22;51321;50.428;8.378;2022-12-15T06:46:02;-2.40;99.90
64855;DHT22;51321;50.428;8.378;2022-12-15T06:48:27;-2.30;99.90
64855;DHT22;51321;50.428;8.378;2022-12-15T06:50:49;-2.30;99.90
64855;DHT22;51321;50.428;8.378;2022-12-15T06:53:12;-2.30;99.90
64855;DHT22;51321;50.428;8.378;2022-12-15T06:55:37;-2.40;99.90
64855;DHT22;51321;50.428;8.378;2022-12-15T06:58:03;-2.40;99.90
64855;DHT22;51321;50.428;8.378;2022-12-15T07:00:26;-2.40;99.90
64855;DHT22;51321;50.428;8.378;2022-12-15T07:02:49;-2.60;99.90
64855;DHT22;51321;50.428;8.378;2022-12-15T07:05:15;-2.50;99.90
64855;DHT22;51321;50.428;8.378;2022-12-15T07:07:37;-2.50;99.90
64855;DHT22;51321;50.428;8.378;2022-12-15T07:10:51;-2.50;99.90
64855;DHT22;51321;50.428;8.378;2022-12-15T07:13:19;-2.60;99.90
64855;DHT22;51321;50.428;8.378;2022-12-15T07:15:42;-2.60;99.90
64855;DHT22;51321;50.428;8.378;2022-12-15T07:18:06;-2.50;99.90
64855;DHT22;51321;50.428;8.378;2022-12-15T07:20:28;-2.70;99.90
64855;DHT22;51321;50.428;8.378;2022-12-15T07:22:51;-2.50;99.90
64855;DHT22;51321;50.428;8.378;2022-12-15T07:25:13;-2.50;99.90
64855;DHT22;51321;50.428;8.378;2022-12-15T07:27:36;-2.40;99.90
64855;DHT22;51321;50.428;8.378;2022-12-15T07:30:03;-2.50;99.90
64855;DHT22;51321;50.428;8.378;2022-12-15T07:32:27;-2.60;99.90
64855;DHT22;51321;50.428;8.378;2022-12-15T07:34:50;-2.60;99.90
64855;DHT22;51321;50.428;8.378;2022-12-15T07:37:14;-2.60;99.90
64855;DHT22;51321;50.428;8.378;2022-12-15T07:39:37;-2.60;99.90
64855;DHT22;51321;50.428;8.378;2022-12-15T07:41:59;-2.60;99.90
64855;DHT22;51321;50.428;8.378;2022-12-15T07:44:22;-2.40;99.90
64855;DHT22;51321;50.428;8.378;2022-12-15T07:46:49;-2.50;99.90
64855;DHT22;51321;50.428;8.378;2022-12-15T07:49:12;-2.50;99.90
64855;DHT22;51321;50.428;8.378;2022-12-15T07:51:35;-2.70;99.90
64855;DHT22;51321;50.428;8.378;2022-12-15T07:53:58;-2.70;99.90
64855;DHT22;51321;50.428;8.378;2022-12-15T07:56:20;-2.80;99.90
64855;DHT22;51321;50.428;8.378;2022-12-15T07:58:42;-2.70;99.90
64855;DHT22;51321;50.428;8.378;2022-12-15T08:01:06;-2.70;99.90
64855;DHT22;51321;50.428;8.378;2022-12-15T08:03:31;-2.70;99.90
64855;DHT22;51321;50.428;8.378;2022-12-15T08:05:55;-2.60;99.90
64855;DHT22;51321;50.428;8.378;2022-12-15T08:08:18;-2.60;99.90
64855;DHT22;51321;50.428;8.378;2022-12-15T08:10:41;-2.50;99.90
64855;DHT22;51321;50.428;8.378;2022-12-15T08:13:03;-2.50;99.90
64855;DHT22;51321;50.428;8.378;2022-12-15T08:15:26;-2.40;99.90
64855;DHT22;51321;50.428;8.378;2022-12-15T08:17:52;-2.30;99.90
64855;DHT22;51321;50.428;8.378;2022-12-15T08:20:19;-2.40;99.90
64855;DHT22;51321;50.428;8.378;2022-12-15T08:22:42;-2.50;99.90
64855;DHT22;51321;50.428;8.378;2022-12-15T08:25:04;-2.50;99.90
64855;DHT22;51321;50.428;8.378;2022-12-15T08:27:27;-2.70;99.90
64855;DHT22;51321;50.428;8.378;2022-12-15T08:29:50;-2.70;99.90
64855;DHT22;51321;50.428;8.378;2022-12-15T08:32:12;-2.60;99.90
64855;DHT22;51321;50.428;8.378;2022-12-15T08:34:37;-2.70;99.90
64855;DHT22;51321;50.428;8.378;2022-12-15T08:37:03;-2.60;99.90
64855;DHT22;51321;50.428;8.378;2022-12-15T08:39:26;-2.60;99.90
64855;DHT22;51321;50.428;8.378;2022-12-15T08:41:48;-2.50;99.90
64855;DHT22;51321;50.428;8.378;2022-12-15T08:44:11;-2.50;99.90
64855;DHT22;51321;50.428;8.378;2022-12-15T08:46:38;-2.70;99.90
64855;DHT22;51321;50.428;8.378;2022-12-15T08:49:03;-2.70;99.90
64855;DHT22;51321;50.428;8.378;2022-12-15T08:51:28;-2.70;99.90
64855;DHT22;51321;50.428;8.378;2022-12-15T08:53:55;-2.80;99.90
64855;DHT22;51321;50.428;8.378;2022-12-15T08:56:19;-2.80;99.90
64855;DHT22;51321;50.428;8.378;2022-12-15T08:58:47;-2.90;99.90
64855;DHT22;51321;50.428;8.378;2022-12-15T09:01:13;-2.80;99.90
64855;DHT22;51321;50.428;8.378;2022-12-15T09:03:38;-2.70;99.90
64855;DHT22;51321;50.428;8.378;2022-12-15T09:06:03;-2.50;99.90
64855;DHT22;51321;50.428;8.378;2022-12-15T09:08:26;-2.50;99.90
64855;DHT22;51321;50.428;8.378;2022-12-15T09:10:53;-2.30;99.90
64855;DHT22;51321;50.428;8.378;2022-12-15T09:13:15;-2.30;99.90
64855;DHT22;51321;50.428;8.378;2022-12-15T09:15:38;-2.40;99.90
64855;DHT22;51321;50.428;8.378;2022-12-15T09:18:03;-2.50;99.90
64855;DHT22;51321;50.428;8.378;2022-12-15T09:20:25;-2.50;99.90
64855;DHT22;51321;50.428;8.378;2022-12-15T09:22:48;-2.40;99.90
64855;DHT22;51321;50.428;8.378;2022-12-15T09:25:10;-2.30;99.90
64855;DHT22;51321;50.428;8.378;2022-12-15T09:27:35;-2.30;99.90
64855;DHT22;51321;50.428;8.378;2022-12-15T09:29:57;-2.20;99.90
64855;DHT22;51321;50.428;8.378;2022-12-15T09:32:20;-2.20;99.90
64855;DHT22;51321;50.428;8.378;2022-12-15T09:34:46;-2.30;99.90
64855;DHT22;51321;50.428;8.378;2022-12-15T09:37:11;-2.40;99.90
64855;DHT22;51321;50.428;8.378;2022-12-15T09:39:35;-2.40;99.90
64855;DHT22;51321;50.428;8.378;2022-12-15T09:42:00;-2.30;99.90
64855;DHT22;51321;50.428;8.378;2022-12-15T09:44:24;-2.30;99.90
64855;DHT22;51321;50.428;8.378;2022-12-15T09:47:11;-2.00;99.90
64855;DHT22;51321;50.428;8.378;2022-12-15T09:52:23;-2.10;99.90
64855;DHT22;51321;50.428;8.378;2022-12-15T09:54:50;-2.10;99.90
64855;DHT22;51321;50.428;8.378;2022-12-15T09:57:36;-1.90;99.90
64855;DHT22;51321;50.428;8.378;2022-12-15T10:00:08;-1.80;99.90
64855;DHT22;51321;50.428;8.378;2022-12-15T10:08:35;-1.90;99.90
64855;DHT22;51321;50.428;8.378;2022-12-15T10:11:03;-2.00;99.90
64855;DHT22;51321;50.428;8.378;2022-12-15T10:13:37;-2.00;99.90
64855;DHT22;51321;50.428;8.378;2022-12-15T10:16:12;-2.00;99.90
64855;DHT22;51321;50.428;8.378;2022-12-15T10:18:44;-1.90;99.90
64855;DHT22;51321;50.428;8.378;2022-12-15T10:21:11;-1.80;99.90
64855;DHT22;51321;50.428;8.378;2022-12-15T10:23:37;-1.80;99.90
64855;DHT22;51321;50.428;8.378;2022-12-15T10:26:15;-1.80;99.90
64855;DHT22;51321;50.428;8.378;2022-12-15T10:28:53;-1.80;99.90
64855;DHT22;51321;50.428;8.378;2022-12-15T10:31:31;-1.70;99.90
64855;DHT22;51321;50.428;8.378;2022-12-15T10:34:07;-1.60;99.90
64855;DHT22;51321;50.428;8.378;2022-12-15T10:36:34;-1.60;99.90
64855;DHT22;51321;50.428;8.378;2022-12-15T10:38:59;-1.60;99.90
64855;DHT22;51321;50.428;8.378;2022-12-15T10:41:26;-1.50;99.90
64855;DHT22;51321;50.428;8.378;2022-12-15T10:43:54;-1.50;99.90
64855;DHT22;51321;50.428;8.378;2022-12-15T10:46:19;-1.30;99.90
64855;DHT22;51321;50.428;8.378;2022-12-15T10:48:48;-1.40;99.90
64855;DHT22;51321;50.428;8.378;2022-12-15T10:51:24;-1.50;99.90
64855;DHT22;51321;50.428;8.378;2022-12-15T10:53:51;-1.40;99.90
64855;DHT22;51321;50.428;8.378;2022-12-15T10:56:19;-1.30;99.90
64855;DHT22;51321;50.428;8.378;2022-12-15T10:58:48;-1.30;99.90
64855;DHT22;51321;50.428;8.378;2022-12-15T11:01:16;-1.30;99.90
64855;DHT22;51321;50.428;8.378;2022-12-15T11:03:40;-1.30;99.90
64855;DHT22;51321;50.428;8.378;2022-12-15T11:06:14;-1.30;99.90
64855;DHT22;51321;50.428;8.378;2022-12-15T11:08:40;-1.30;99.90
64855;DHT22;51321;50.428;8.378;2022-12-15T11:11:23;-1.20;99.90
64855;DHT22;51321;50.428;8.378;2022-12-15T11:14:08;-1.20;99.90
64855;DHT22;51321;50.428;8.378;2022-12-15T11:16:32;-1.30;99.90
64855;DHT22;51321;50.428;8.378;2022-12-15T11:19:00;-1.30;99.90
64855;DHT22;51321;50.428;8.378;2022-12-15T11:21:27;-1.50;99.90
64855;DHT22;51321;50.428;8.378;2022-12-15T11:23:58;-1.50;99.90
64855;DHT22;51321;50.428;8.378;2022-12-15T11:26:42;-1.60;99.90
64855;DHT22;51321;50.428;8.378;2022-12-15T11:29:20;-1.50;99.90
64855;DHT22;51321;50.428;8.378;2022-12-15T11:31:48;-1.60;99.90
64855;DHT22;51321;50.428;8.378;2022-12-15T11:34:14;-1.60;99.90
64855;DHT22;51321;50.428;8.378;2022-12-15T11:37:08;-1.60;99.90
64855;DHT22;51321;50.428;8.378;2022-12-15T11:39:46;-1.60;99.90
64855;DHT22;51321;50.428;8.378;2022-12-15T11:42:21;-1.60;99.90
64855;DHT22;51321;50.428;8.378;2022-12-15T11:44:56;-1.60;99.90
64855;DHT22;51321;50.428;8.378;2022-12-15T11:47:22;-1.60;99.90
64855;DHT22;51321;50.428;8.378;2022-12-15T11:50:12;-1.50;99.90
64855;DHT22;51321;50.428;8.378;2022-12-15T11:52:58;-1.40;99.90
64855;DHT22;51321;50.428;8.378;2022-12-15T11:55:37;-1.30;99.90
64855;DHT22;51321;50.428;8.378;2022-12-15T11:58:20;-1.30;99.90
64855;DHT22;51321;50.428;8.378;2022-12-15T12:00:51;-1.30;99.90
64855;DHT22;51321;50.428;8.378;2022-12-15T12:03:25;-1.20;99.90
64855;DHT22;51321;50.428;8.378;2022-12-15T12:06:01;-1.20;99.90
64855;DHT22;51321;50.428;8.378;2022-12-15T12:08:39;-1.30;99.90
64855;DHT22;51321;50.428;8.378;2022-12-15T12:11:11;-1.20;99.90
64855;DHT22;51321;50.428;8.378;2022-12-15T12:13:39;-1.30;99.90
64855;DHT22;51321;50.428;8.378;2022-12-15T12:16:22;-1.30;99.90
64855;DHT22;51321;50.428;8.378;2022-12-15T12:18:53;-1.20;99.90
64855;DHT22;51321;50.428;8.378;2022-12-15T12:21:21;-1.40;99.90
64855;DHT22;51321;50.428;8.378;2022-12-15T12:23:50;-1.30;99.90
64855;DHT22;51321;50.428;8.378;2022-12-15T12:26:20;-1.30;99.90
64855;DHT22;51321;50.428;8.378;2022-12-15T12:28:46;-1.20;99.90
64855;DHT22;51321;50.428;8.378;2022-12-15T12:31:17;-1.20;99.90
64855;DHT22;51321;50.428;8.378;2022-12-15T12:33:54;-1.30;99.90
64855;DHT22;51321;50.428;8.378;2022-12-15T12:36:19;-1.30;99.90
64855;DHT22;51321;50.428;8.378;2022-12-15T12:38:46;-1.30;99.90
64855;DHT22;51321;50.428;8.378;2022-12-15T12:41:13;-1.20;99.90
64855;DHT22;51321;50.428;8.378;2022-12-15T12:43:41;-1.20;99.90
64855;DHT22;51321;50.428;8.378;2022-12-15T12:46:09;-1.10;99.90
64855;DHT22;51321;50.428;8.378;2022-12-15T12:48:37;-1.20;99.90
64855;DHT22;51321;50.428;8.378;2022-12-15T12:51:11;-1.20;99.90
64855;DHT22;51321;50.428;8.378;2022-12-15T12:53:37;-1.20;99.90
64855;DHT22;51321;50.428;8.378;2022-12-15T12:56:01;-1.10;99.90
64855;DHT22;51321;50.428;8.378;2022-12-15T12:58:31;-1.20;99.90
64855;DHT22;51321;50.428;8.378;2022-12-15T13:01:04;-1.20;99.90
64855;DHT22;51321;50.428;8.378;2022-12-15T13:03:27;-1.30;99.90
64855;DHT22;51321;50.428;8.378;2022-12-15T13:05:49;-1.30;99.90
64855;DHT22;51321;50.428;8.378;2022-12-15T13:14:20;-1.60;99.90
64855;DHT22;51321;50.428;8.378;2022-12-15T13:16:45;-1.60;99.90
64855;DHT22;51321;50.428;8.378;2022-12-15T13:19:08;-1.60;99.90
64855;DHT22;51321;50.428;8.378;2022-12-15T13:21:52;-1.50;99.90
64855;DHT22;51321;50.428;8.378;2022-12-15T13:24:21;-1.40;99.90
64855;DHT22;51321;50.428;8.378;2022-12-15T13:26:47;-1.40;99.90
64855;DHT22;51321;50.428;8.378;2022-12-15T13:29:13;-1.60;99.90
64855;DHT22;51321;50.428;8.378;2022-12-15T13:31:46;-1.80;99.90
64855;DHT22;51321;50.428;8.378;2022-12-15T13:34:26;-1.90;99.90
64855;DHT22;51321;50.428;8.378;2022-12-15T13:36:52;-1.90;99.90
64855;DHT22;51321;50.428;8.378;2022-12-15T13:42:31;-2.10;99.90
64855;DHT22;51321;50.428;8.378;2022-12-15T13:45:02;-2.10;99.90
64855;DHT22;51321;50.428;8.378;2022-12-15T13:47:29;-2.10;99.90
64855;DHT22;51321;50.428;8.378;2022-12-15T13:49:58;-2.00;99.90
64855;DHT22;51321;50.428;8.378;2022-12-15T13:52:27;-1.90;99.90
64855;DHT22;51321;50.428;8.378;2022-12-15T13:54:54;-1.80;99.90
64855;DHT22;51321;50.428;8.378;2022-12-15T13:57:20;-1.80;99.90
64855;DHT22;51321;50.428;8.378;2022-12-15T13:59:48;-2.00;99.90
64855;DHT22;51321;50.428;8.378;2022-12-15T14:02:23;-2.10;99.90
64855;DHT22;51321;50.428;8.378;2022-12-15T14:07:46;-2.30;99.90
64855;DHT22;51321;50.428;8.378;2022-12-15T14:10:18;-2.40;99.90
64855;DHT22;51321;50.428;8.378;2022-12-15T14:12:41;-2.30;99.90
64855;DHT22;51321;50.428;8.378;2022-12-15T14:15:10;-2.30;99.90
64855;DHT22;51321;50.428;8.378;2022-12-15T14:17:35;-2.30;99.90
64855;DHT22;51321;50.428;8.378;2022-12-15T14:20:10;-2.30;99.90
64855;DHT22;51321;50.428;8.378;2022-12-15T14:22:34;-2.20;99.90
64855;DHT22;51321;50.428;8.378;2022-12-15T14:25:02;-2.30;99.90
64855;DHT22;51321;50.428;8.378;2022-12-15T14:27:28;-2.40;99.90
64855;DHT22;51321;50.428;8.378;2022-12-15T14:30:17;-2.50;99.90
64855;DHT22;51321;50.428;8.378;2022-12-15T14:32:43;-2.40;99.90
64855;DHT22;51321;50.428;8.378;2022-12-15T14:41:01;-2.50;99.90
64855;DHT22;51321;50.428;8.378;2022-12-15T14:43:27;-2.40;99.90
64855;DHT22;51321;50.428;8.378;2022-12-15T14:50:45;-2.40;99.90
64855;DHT22;51321;50.428;8.378;2022-12-15T14:53:13;-2.30;99.90
64855;DHT22;51321;50.428;8.378;2022-12-15T14:55:37;-2.30;99.90
64855;DHT22;51321;50.428;8.378;2022-12-15T14:58:02;-2.30;99.90
64855;DHT22;51321;50.428;8.378;2022-12-15T15:00:48;-2.30;99.90
64855;DHT22;51321;50.428;8.378;2022-12-15T15:03:19;-2.40;99.90
64855;DHT22;51321;50.428;8.378;2022-12-15T15:05:44;-2.50;99.90
64855;DHT22;51321;50.428;8.378;2022-12-15T15:08:15;-2.50;99.90
64855;DHT22;51321;50.428;8.378;2022-12-15T15:10:40;-2.40;99.90
64855;DHT22;51321;50.428;8.378;2022-12-15T15:13:04;-2.50;99.90
64855;DHT22;51321;50.428;8.378;2022-12-15T15:15:28;-2.60;99.90
64855;DHT22;51321;50.428;8.378;2022-12-15T15:17:54;-2.60;99.90
64855;DHT22;51321;50.428;8.378;2022-12-15T15:20:20;-2.70;99.90
64855;DHT22;51321;50.428;8.378;2022-12-15T15:22:44;-2.80;99.90
64855;DHT22;51321;50.428;8.378;2022-12-15T15:25:26;-2.80;99.90
64855;DHT22;51321;50.428;8.378;2022-12-15T15:28:10;-2.70;99.90
64855;DHT22;51321;50.428;8.378;2022-12-15T15:30:40;-2.80;99.90
64855;DHT22;51321;50.428;8.378;2022-12-15T15:33:06;-2.90;99.90
64855;DHT22;51321;50.428;8.378;2022-12-15T15:35:31;-2.90;99.90
64855;DHT22;51321;50.428;8.378;2022-12-15T15:38:00;-2.90;99.90
64855;DHT22;51321;50.428;8.378;2022-12-15T15:40:24;-2.90;99.90
64855;DHT22;51321;50.428;8.378;2022-12-15T15:42:48;-2.80;99.90
64855;DHT22;51321;50.428;8.378;2022-12-15T15:45:13;-2.90;99.90
64855;DHT22;51321;50.428;8.378;2022-12-15T15:47:40;-3.00;99.90
64855;DHT22;51321;50.428;8.378;2022-12-15T15:50:07;-3.00;99.90
64855;DHT22;51321;50.428;8.378;2022-12-15T15:52:32;-3.10;99.90
64855;DHT22;51321;50.428;8.378;2022-12-15T15:54:55;-3.20;99.90
64855;DHT22;51321;50.428;8.378;2022-12-15T15:57:20;-3.30;99.90
64855;DHT22;51321;50.428;8.378;2022-12-15T15:59:44;-3.40;99.90
64855;DHT22;51321;50.428;8.378;2022-12-15T16:02:08;-3.30;99.90
64855;DHT22;51321;50.428;8.378;2022-12-15T16:04:32;-3.20;99.90
64855;DHT22;51321;50.428;8.378;2022-12-15T16:07:02;-3.20;99.90
64855;DHT22;51321;50.428;8.378;2022-12-15T16:09:26;-3.20;99.90
64855;DHT22;51321;50.428;8.378;2022-12-15T16:11:51;-3.10;99.90
64855;DHT22;51321;50.428;8.378;2022-12-15T16:14:15;-3.30;99.90
64855;DHT22;51321;50.428;8.378;2022-12-15T16:16:42;-3.50;99.90
64855;DHT22;51321;50.428;8.378;2022-12-15T16:19:08;-3.60;99.90
64855;DHT22;51321;50.428;8.378;2022-12-15T16:21:32;-3.60;99.90
64855;DHT22;51321;50.428;8.378;2022-12-15T16:23:56;-3.70;99.90
64855;DHT22;51321;50.428;8.378;2022-12-15T16:26:25;-3.60;99.90